createdAt,value
2023-04-03T00:01:14.635Z,-1.06
2023-04-03T00:03:42.603Z,-1.07
2023-04-03T00:06:12.748Z,-1.08
2023-04-03T00:08:41.468Z,-1.10
2023-04-03T00:11:10.801Z,-1.10
2023-04-03T00:13:39.609Z,-1.08
2023-04-03T00:16:09.258Z,-1.07
2023-04-03T00:18:37.904Z,-1.07
2023-04-03T00:21:06.395Z,-1.08
2023-04-03T00:23:35.272Z,-1.09
2023-04-03T00:26:03.378Z,-1.08
2023-04-03T00:28:31.121Z,-1.08
2023-04-03T00:30:59.649Z,-1.09
2023-04-03T00:33:27.409Z,-1.09
2023-04-03T00:35:55.048Z,-1.10
2023-04-03T00:38:22.726Z,-1.10
2023-04-03T00:40:50.789Z,-1.10
2023-04-03T00:43:23.574Z,-1.10
2023-04-03T00:45:56.414Z,-1.12
2023-04-03T00:48:31.447Z,-1.14
2023-04-03T00:51:01.195Z,-1.15
2023-04-03T00:53:37.424Z,-1.18
2023-04-03T00:56:13.379Z,-1.20
2023-04-03T00:58:49.610Z,-1.22
2023-04-03T01:01:24.415Z,-1.23
2023-04-03T01:03:52.420Z,-1.26
2023-04-03T01:06:27.200Z,-1.28
2023-04-03T01:08:56.393Z,-1.32
2023-04-03T01:11:24.553Z,-1.34
2023-04-03T01:13:53.532Z,-1.35
2023-04-03T01:16:21.616Z,-1.36
2023-04-03T01:18:49.502Z,-1.37
2023-04-03T01:21:33.067Z,-1.38
2023-04-03T01:24:06.936Z,-1.39
2023-04-03T01:26:35.087Z,-1.41
2023-04-03T01:29:03.988Z,-1.42
2023-04-03T01:31:55.598Z,-1.42
2023-04-03T01:34:24.241Z,-1.43
2023-04-03T01:36:53.375Z,-1.43
2023-04-03T01:39:22.067Z,-1.45
2023-04-03T01:41:50.407Z,-1.46
2023-04-03T01:44:23.456Z,-1.48
2023-04-03T01:46:51.216Z,-1.49
2023-04-03T01:49:18.932Z,-1.49
2023-04-03T01:51:46.797Z,-1.51
2023-04-03T01:54:14.421Z,-1.54
2023-04-03T01:56:42.371Z,-1.59
2023-04-03T01:59:10.430Z,-1.61
2023-04-03T02:01:38.268Z,-1.64
2023-04-03T02:04:06.476Z,-1.66
2023-04-03T02:06:34.139Z,-1.67
2023-04-03T02:09:01.792Z,-1.66
2023-04-03T02:11:31.830Z,-1.66
2023-04-03T02:13:59.467Z,-1.68
2023-04-03T02:16:27.239Z,-1.70
2023-04-03T02:18:55.204Z,-1.71
2023-04-03T02:21:23.178Z,-1.72
2023-04-03T02:23:50.859Z,-1.74
2023-04-03T02:26:20.753Z,-1.77
2023-04-03T02:28:48.411Z,-1.78
2023-04-03T02:31:16.463Z,-1.78
2023-04-03T02:33:44.668Z,-1.79
2023-04-03T02:36:14.466Z,-1.81
2023-04-03T02:38:44.021Z,-1.82
2023-04-03T02:41:13.554Z,-1.83
2023-04-03T02:43:41.550Z,-1.84
2023-04-03T02:46:09.782Z,-1.85
2023-04-03T02:48:38.071Z,-1.85
2023-04-03T02:51:06.157Z,-1.88
2023-04-03T02:53:33.843Z,-1.89
2023-04-03T02:56:06.574Z,-1.90
2023-04-03T02:58:34.216Z,-1.91
2023-04-03T03:01:03.239Z,-1.92
2023-04-03T03:03:30.864Z,-1.94
2023-04-03T03:06:17.438Z,-1.96
2023-04-03T03:08:45.491Z,-1.97
2023-04-03T03:11:13.151Z,-1.99
2023-04-03T03:13:40.828Z,-2.02
2023-04-03T03:16:08.685Z,-2.04
2023-04-03T03:18:37.542Z,-2.05
2023-04-03T03:21:05.721Z,-2.07
2023-04-03T03:23:33.922Z,-2.09
2023-04-03T03:26:08.239Z,-2.09
2023-04-03T03:28:37.633Z,-2.10
2023-04-03T03:31:06.409Z,-2.11
2023-04-03T03:33:34.675Z,-2.13
2023-04-03T03:36:02.611Z,-2.14
2023-04-03T03:38:31.471Z,-2.14
2023-04-03T03:40:59.778Z,-2.15
2023-04-03T03:43:28.914Z,-2.17
2023-04-03T03:45:56.607Z,-2.17
2023-04-03T03:48:25.261Z,-2.17
2023-04-03T03:50:53.212Z,-2.19
2023-04-03T03:53:23.924Z,-2.21
2023-04-03T03:55:53.471Z,-2.21
2023-04-03T03:58:22.920Z,-2.23
2023-04-03T04:00:50.555Z,-2.24
2023-04-03T04:03:18.642Z,-2.25
2023-04-03T04:05:47.947Z,-2.26
2023-04-03T04:08:15.893Z,-2.27
2023-04-03T04:10:44.441Z,-2.29
2023-04-03T04:13:13.831Z,-2.29
2023-04-03T04:15:42.748Z,-2.29
2023-04-03T04:18:11.013Z,-2.30
2023-04-03T04:20:38.981Z,-2.29
2023-04-03T04:23:06.829Z,-2.29
2023-04-03T04:25:35.217Z,-2.29
2023-04-03T04:28:03.039Z,-2.29
2023-04-03T04:30:30.704Z,-2.28
2023-04-03T04:32:58.931Z,-2.26
2023-04-03T04:35:27.172Z,-2.24
2023-04-03T04:37:55.023Z,-2.23
2023-04-03T04:40:23.354Z,-2.20
2023-04-03T04:42:51.372Z,-2.18
2023-04-03T04:45:19.144Z,-2.17
2023-04-03T04:47:47.744Z,-2.15
2023-04-03T04:50:15.969Z,-2.14
2023-04-03T04:52:43.619Z,-2.11
2023-04-03T04:55:11.388Z,-2.09
2023-04-03T04:57:39.798Z,-2.06
2023-04-03T05:00:09.088Z,-2.04
2023-04-03T05:02:37.203Z,-2.00
2023-04-03T05:05:05.772Z,-1.98
2023-04-03T05:07:33.906Z,-1.95
2023-04-03T05:10:03.419Z,-1.92
2023-04-03T05:12:31.351Z,-1.89
2023-04-03T05:15:01.102Z,-1.86
2023-04-03T05:17:30.855Z,-1.83
2023-04-03T05:19:58.804Z,-1.82
2023-04-03T05:22:34.761Z,-1.79
2023-04-03T05:25:14.905Z,-1.77
2023-04-03T05:27:44.698Z,-1.74
2023-04-03T05:30:13.662Z,-1.72
2023-04-03T05:32:42.235Z,-1.68
2023-04-03T05:35:26.946Z,-1.65
2023-04-03T05:38:03.969Z,-1.60
2023-04-03T05:40:36.311Z,-1.57
2023-04-03T05:43:05.068Z,-1.54
2023-04-03T05:45:35.829Z,-1.51
2023-04-03T05:48:04.383Z,-1.48
2023-04-03T05:50:32.300Z,-1.44
2023-04-03T05:53:01.249Z,-1.42
2023-04-03T05:55:30.795Z,-1.40
2023-04-03T05:57:58.486Z,-1.37
2023-04-03T06:00:26.410Z,-1.31
2023-04-03T06:02:58.481Z,-1.28
2023-04-03T06:05:26.655Z,-1.26
2023-04-03T06:07:54.501Z,-1.25
2023-04-03T06:10:22.341Z,-1.21
2023-04-03T06:12:51.671Z,-1.17
2023-04-03T06:15:22.007Z,-1.13
2023-04-03T06:21:32.505Z,-1.04
2023-04-03T06:24:28.826Z,-1.03
2023-04-03T06:27:32.111Z,-1.00
2023-04-03T06:30:36.208Z,-0.98
2023-04-03T06:34:00.167Z,-0.95
2023-04-03T06:36:51.740Z,-0.89
2023-04-03T06:39:37.327Z,-0.79
2023-04-03T06:42:18.502Z,-0.71
2023-04-03T06:45:29.275Z,-0.68
2023-04-03T06:48:33.394Z,-0.59
2023-04-03T06:51:51.219Z,-0.52
2023-04-03T06:54:21.258Z,-0.48
2023-04-03T06:56:49.356Z,-0.44
2023-04-03T06:59:17.196Z,-0.36
2023-04-03T07:01:45.742Z,-0.28
2023-04-03T07:04:14.146Z,-0.21
2023-04-03T07:06:43.627Z,-0.19
2023-04-03T07:09:13.825Z,-0.17
2023-04-03T07:11:43.632Z,-0.16
2023-04-03T07:14:11.757Z,-0.13
2023-04-03T07:16:41.709Z,-0.12
2023-04-03T07:19:11.203Z,-0.08
2023-04-03T07:21:38.942Z,-0.04
2023-04-03T07:24:07.506Z,0.00
2023-04-03T07:26:37.143Z,0.03
2023-04-03T07:29:04.972Z,0.09
2023-04-03T07:31:32.717Z,0.17
2023-04-03T07:34:00.644Z,0.19
2023-04-03T07:36:28.729Z,0.22
2023-04-03T07:38:57.265Z,0.28
2023-04-03T07:41:25.198Z,0.33
2023-04-03T07:43:53.842Z,0.39
2023-04-03T07:46:21.578Z,0.42
2023-04-03T07:48:49.560Z,0.47
2023-04-03T07:51:17.344Z,0.51
2023-04-03T07:53:45.988Z,0.58
2023-04-03T07:56:13.754Z,0.62
2023-04-03T07:58:41.475Z,0.62
2023-04-03T08:01:09.164Z,0.64
2023-04-03T08:03:38.380Z,0.65
2023-04-03T08:06:11.990Z,0.69
2023-04-03T08:08:43.594Z,0.77
2023-04-03T08:11:12.467Z,0.85
2023-04-03T08:13:42.262Z,0.83
2023-04-03T08:16:17.711Z,0.78
2023-04-03T08:18:45.660Z,0.81
2023-04-03T08:21:14.106Z,0.85
2023-04-03T08:23:44.651Z,0.92
2023-04-03T08:26:15.066Z,1.01
2023-04-03T08:28:42.965Z,1.07
2023-04-03T08:31:14.553Z,1.12
2023-04-03T08:33:42.663Z,1.23
2023-04-03T08:36:23.127Z,1.36
2023-04-03T08:38:51.893Z,1.45
2023-04-03T08:41:32.002Z,1.47
2023-04-03T08:44:24.393Z,1.50
2023-04-03T08:47:13.957Z,1.58
2023-04-03T08:49:48.600Z,1.64
2023-04-03T08:52:21.213Z,1.69
2023-04-03T08:54:54.899Z,1.65
2023-04-03T08:57:50.100Z,1.57
2023-04-03T09:00:25.869Z,1.55
2023-04-03T09:02:56.731Z,1.74
2023-04-03T09:05:30.572Z,1.88
2023-04-03T09:08:06.251Z,2.01
2023-04-03T09:10:38.637Z,2.04
2023-04-03T09:13:14.577Z,2.08
2023-04-03T09:15:42.895Z,2.11
2023-04-03T09:18:20.625Z,2.21
2023-04-03T09:21:04.243Z,2.34
2023-04-03T09:23:39.193Z,2.50
2023-04-03T09:26:15.400Z,2.59
2023-04-03T09:28:50.305Z,2.67
2023-04-03T09:31:24.131Z,2.73
2023-04-03T09:34:00.676Z,2.87
2023-04-03T09:36:46.210Z,3.07
2023-04-03T09:39:18.210Z,3.19
2023-04-03T09:42:06.076Z,3.13
2023-04-03T09:44:59.877Z,3.10
2023-04-03T09:47:31.113Z,3.21
2023-04-03T09:50:14.872Z,3.36
2023-04-03T09:52:45.127Z,3.45
2023-04-03T09:55:19.308Z,3.43
2023-04-03T09:57:52.159Z,3.29
2023-04-03T10:00:26.323Z,3.02
2023-04-03T10:02:58.871Z,2.89
2023-04-03T10:05:29.721Z,2.88
2023-04-03T10:08:14.419Z,3.09
2023-04-03T10:10:44.150Z,3.34
2023-04-03T10:13:22.243Z,3.36
2023-04-03T10:16:13.917Z,3.29
2023-04-03T10:19:14.512Z,3.33
2023-04-03T10:22:15.478Z,3.45
2023-04-03T10:24:52.760Z,3.47
2023-04-03T10:27:32.259Z,3.48
2023-04-03T10:30:40.123Z,3.57
2023-04-03T10:33:32.754Z,3.75
2023-04-03T10:36:14.234Z,4.08
2023-04-03T10:38:41.793Z,4.39
2023-04-03T10:41:28.188Z,4.30
2023-04-03T10:44:09.456Z,4.24
2023-04-03T10:46:42.992Z,4.22
2023-04-03T10:49:28.163Z,4.32
2023-04-03T10:52:21.303Z,4.40
2023-04-03T10:55:08.365Z,4.32
2023-04-03T10:57:36.954Z,4.10
2023-04-03T11:00:19.247Z,4.20
2023-04-03T11:02:54.131Z,4.31
2023-04-03T11:05:37.937Z,4.19
2023-04-03T11:08:16.468Z,4.18
2023-04-03T11:10:49.130Z,4.25
2023-04-03T11:13:20.705Z,4.30
2023-04-03T11:15:49.338Z,4.35
2023-04-03T11:18:22.640Z,4.46
2023-04-03T11:21:17.421Z,4.51
2023-04-03T11:23:49.935Z,4.60
2023-04-03T11:26:26.399Z,4.74
2023-04-03T11:28:59.881Z,4.92
2023-04-03T11:31:33.525Z,4.87
2023-04-03T11:34:35.384Z,4.68
2023-04-03T11:37:12.214Z,4.83
2023-04-03T11:39:47.714Z,5.15
2023-04-03T11:42:47.319Z,5.49
2023-04-03T11:45:33.904Z,5.35
2023-04-03T11:48:24.919Z,5.50
2023-04-03T11:50:53.232Z,5.51
2023-04-03T11:53:41.756Z,5.26
2023-04-03T11:56:28.301Z,5.20
2023-04-03T11:59:12.552Z,5.63
2023-04-03T12:01:43.237Z,6.12
2023-04-03T12:04:15.437Z,6.10
2023-04-03T12:06:53.145Z,5.81
2023-04-03T12:09:29.490Z,6.03
2023-04-03T12:12:01.370Z,6.29
2023-04-03T12:14:30.802Z,6.60
2023-04-03T12:16:59.159Z,6.85
2023-04-03T12:19:45.758Z,7.08
2023-04-03T12:22:16.686Z,6.50
2023-04-03T12:24:49.279Z,6.00
2023-04-03T12:27:27.100Z,5.68
2023-04-03T12:30:11.553Z,5.42
2023-04-03T12:33:14.111Z,5.08
2023-04-03T12:35:56.845Z,5.13
2023-04-03T12:38:43.357Z,6.02
2023-04-03T12:41:43.067Z,6.43
2023-04-03T12:44:19.497Z,6.04
2023-04-03T12:46:50.805Z,5.63
2023-04-03T12:49:42.582Z,5.34
2023-04-03T12:52:23.860Z,5.89
2023-04-03T12:54:52.481Z,5.78
2023-04-03T12:57:24.793Z,5.44
2023-04-03T12:59:52.574Z,5.57
2023-04-03T13:02:30.951Z,5.70
2023-04-03T13:05:05.309Z,6.14
2023-04-03T13:07:38.929Z,6.08
2023-04-03T13:10:09.742Z,5.77
2023-04-03T13:12:55.530Z,5.35
2023-04-03T13:15:30.260Z,5.12
2023-04-03T13:17:58.482Z,5.55
2023-04-03T13:20:29.599Z,6.16
2023-04-03T13:23:00.325Z,6.54
2023-04-03T13:25:32.391Z,6.45
2023-04-03T13:28:12.736Z,5.85
2023-04-03T13:30:59.998Z,5.52
2023-04-03T13:33:32.323Z,6.09
2023-04-03T13:36:21.626Z,6.62
2023-04-03T13:39:07.495Z,6.33
2023-04-03T13:41:40.996Z,5.87
2023-04-03T13:44:24.518Z,6.20
2023-04-03T13:46:55.268Z,6.51
2023-04-03T13:49:40.328Z,6.29
2023-04-03T13:52:36.908Z,5.80
2023-04-03T13:55:37.424Z,5.35
2023-04-03T13:58:08.351Z,5.38
2023-04-03T14:00:53.855Z,5.96
2023-04-03T14:03:27.365Z,5.96
2023-04-03T14:05:55.382Z,5.85
2023-04-03T14:08:29.418Z,6.27
2023-04-03T14:11:03.847Z,6.80
2023-04-03T14:13:32.544Z,7.18
2023-04-03T14:16:15.070Z,7.17
2023-04-03T14:18:46.094Z,6.50
2023-04-03T14:21:16.409Z,6.31
2023-04-03T14:23:45.166Z,6.43
2023-04-03T14:26:17.343Z,6.09
2023-04-03T14:28:47.945Z,5.86
2023-04-03T14:31:17.199Z,5.40
2023-04-03T14:33:45.202Z,4.95
2023-04-03T14:36:17.213Z,5.06
2023-04-03T14:38:46.602Z,5.69
2023-04-03T14:41:17.407Z,6.15
2023-04-03T14:43:46.522Z,5.95
2023-04-03T14:46:17.371Z,5.49
2023-04-03T14:48:45.896Z,5.15
2023-04-03T14:51:15.556Z,5.18
2023-04-03T14:53:45.712Z,5.31
2023-04-03T14:56:27.381Z,5.03
2023-04-03T14:58:58.413Z,4.60
2023-04-03T15:01:27.415Z,4.33
2023-04-03T15:03:55.978Z,4.21
2023-04-03T15:06:25.767Z,4.10
2023-04-03T15:08:53.369Z,3.95
2023-04-03T15:11:21.941Z,3.82
2023-04-03T15:13:49.547Z,3.69
2023-04-03T15:16:20.390Z,3.58
2023-04-03T15:18:48.787Z,3.54
2023-04-03T15:21:17.608Z,3.47
2023-04-03T15:23:45.230Z,3.34
2023-04-03T15:26:12.958Z,3.26
2023-04-03T15:28:42.896Z,3.23
2023-04-03T15:31:10.930Z,3.22
2023-04-03T15:33:39.109Z,3.17
2023-04-03T15:36:11.959Z,3.08
2023-04-03T15:38:50.413Z,3.03
2023-04-03T15:41:18.095Z,3.04
2023-04-03T15:43:45.814Z,3.01
2023-04-03T15:46:14.335Z,2.91
2023-04-03T15:48:42.385Z,2.87
2023-04-03T15:51:10.113Z,2.84
2023-04-03T15:53:37.733Z,2.80
2023-04-03T15:56:05.660Z,2.78
2023-04-03T15:58:33.465Z,2.79
2023-04-03T16:01:02.018Z,2.86
2023-04-03T16:03:30.874Z,2.86
2023-04-03T16:05:58.798Z,2.89
2023-04-03T16:08:26.553Z,2.80
2023-04-03T16:10:54.318Z,2.65
2023-04-03T16:13:21.948Z,2.52
2023-04-03T16:15:50.358Z,2.42
2023-04-03T16:18:19.312Z,2.35
2023-04-03T16:20:48.001Z,2.33
2023-04-03T16:23:15.732Z,2.30
2023-04-03T16:25:47.025Z,2.27
2023-04-03T16:28:15.471Z,2.24
2023-04-03T16:30:44.642Z,2.20
2023-04-03T16:33:13.822Z,2.14
2023-04-03T16:35:42.982Z,2.13
2023-04-03T16:38:10.928Z,2.16
2023-04-03T16:40:38.566Z,2.22
2023-04-03T16:43:06.803Z,2.25
2023-04-03T16:45:34.649Z,2.25
2023-04-03T16:48:02.379Z,2.16
2023-04-03T16:50:30.254Z,2.07
2023-04-03T16:52:58.004Z,1.97
2023-04-03T16:55:26.097Z,1.91
2023-04-03T16:57:55.373Z,1.87
2023-04-03T17:00:23.059Z,1.83
2023-04-03T17:02:51.039Z,1.78
2023-04-03T17:05:18.726Z,1.72
2023-04-03T17:07:46.386Z,1.65
2023-04-03T17:10:15.465Z,1.56
2023-04-03T17:12:43.291Z,1.49
2023-04-03T17:15:11.547Z,1.42
2023-04-03T17:17:39.540Z,1.36
2023-04-03T17:20:08.361Z,1.29
2023-04-03T17:22:36.218Z,1.21
2023-04-03T17:25:04.805Z,1.17
2023-04-03T17:27:32.685Z,1.12
2023-04-03T17:30:00.298Z,1.06
2023-04-03T17:32:28.336Z,1.02
2023-04-03T17:34:56.005Z,0.99
2023-04-03T17:37:23.810Z,0.94
2023-04-03T17:39:51.664Z,0.87
2023-04-03T17:42:19.340Z,0.83
2023-04-03T17:44:47.155Z,0.75
2023-04-03T17:47:15.025Z,0.67
2023-04-03T17:49:42.881Z,0.60
2023-04-03T17:52:10.960Z,0.57
2023-04-03T17:54:38.734Z,0.55
2023-04-03T17:57:06.677Z,0.54
2023-04-03T17:59:34.755Z,0.54
2023-04-03T18:02:02.570Z,0.55
2023-04-03T18:04:31.809Z,0.56
2023-04-03T18:06:59.613Z,0.56
2023-04-03T18:09:31.941Z,0.54
2023-04-03T18:12:04.629Z,0.53
2023-04-03T18:14:35.037Z,0.51
2023-04-03T18:17:03.640Z,0.49
2023-04-03T18:19:32.072Z,0.47
2023-04-03T18:22:04.799Z,0.46
2023-04-03T18:24:36.493Z,0.44
2023-04-03T18:27:12.926Z,0.41
2023-04-03T18:29:43.817Z,0.40
2023-04-03T18:32:13.978Z,0.37
2023-04-03T18:34:41.866Z,0.34
2023-04-03T18:37:09.711Z,0.28
2023-04-03T18:39:37.662Z,0.22
2023-04-03T18:42:30.566Z,0.18
2023-04-03T18:45:01.803Z,0.14
2023-04-03T18:47:30.183Z,0.12
2023-04-03T18:49:58.579Z,0.09
2023-04-03T18:52:26.470Z,0.10
2023-04-03T18:54:54.279Z,0.10
2023-04-03T18:57:22.444Z,0.11
2023-04-03T18:59:50.348Z,0.11
2023-04-03T19:02:21.125Z,0.10
2023-04-03T19:04:49.324Z,0.10
2023-04-03T19:07:17.171Z,0.11
2023-04-03T19:09:45.719Z,0.10
2023-04-03T19:12:13.451Z,0.10
2023-04-03T19:14:41.234Z,0.10
2023-04-03T19:17:09.070Z,0.08
2023-04-03T19:19:37.034Z,0.07
2023-04-03T19:22:06.847Z,0.05
2023-04-03T19:24:34.803Z,0.03
2023-04-03T19:27:02.727Z,0.02
2023-04-03T19:29:30.543Z,-0.02
2023-04-03T19:31:58.140Z,-0.05
2023-04-03T19:34:25.818Z,-0.08
2023-04-03T19:36:53.614Z,-0.11
2023-04-03T19:39:21.420Z,-0.15
2023-04-03T19:41:49.455Z,-0.19
2023-04-03T19:44:17.124Z,-0.22
2023-04-03T19:46:51.299Z,-0.24
2023-04-03T19:49:20.428Z,-0.26
2023-04-03T19:51:48.169Z,-0.30
2023-04-03T19:54:16.265Z,-0.33
2023-04-03T19:56:45.570Z,-0.34
2023-04-03T19:59:13.583Z,-0.35
2023-04-03T20:01:41.920Z,-0.36
2023-04-03T20:04:09.612Z,-0.38
2023-04-03T20:06:37.816Z,-0.41
2023-04-03T20:09:05.539Z,-0.43
2023-04-03T20:11:38.020Z,-0.44
2023-04-03T20:14:06.981Z,-0.46
2023-04-03T20:16:35.683Z,-0.48
2023-04-03T20:19:03.417Z,-0.48
2023-04-03T20:21:32.722Z,-0.49
2023-04-03T20:24:02.173Z,-0.48
2023-04-03T20:26:31.795Z,-0.49
2023-04-03T20:29:01.526Z,-0.48
2023-04-03T20:31:29.870Z,-0.50
2023-04-03T20:33:57.917Z,-0.51
2023-04-03T20:36:28.337Z,-0.51
2023-04-03T20:38:57.022Z,-0.52
2023-04-03T20:41:24.871Z,-0.51
2023-04-03T20:43:53.461Z,-0.50
2023-04-03T20:46:22.686Z,-0.49
2023-04-03T20:48:50.327Z,-0.50
2023-04-03T20:51:19.944Z,-0.52
2023-04-03T20:53:48.582Z,-0.55
2023-04-03T20:56:16.599Z,-0.58
2023-04-03T20:58:45.929Z,-0.61
2023-04-03T21:01:24.410Z,-0.64
2023-04-03T21:04:00.789Z,-0.67
2023-04-03T21:07:02.930Z,-0.71
2023-04-03T21:10:01.499Z,-0.74
2023-04-03T21:13:01.333Z,-0.79
2023-04-03T21:15:48.807Z,-0.84
2023-04-03T21:18:28.384Z,-0.87
2023-04-03T21:20:56.312Z,-0.89
2023-04-03T21:23:27.311Z,-0.92
2023-04-03T21:25:55.494Z,-0.95
2023-04-03T21:28:25.030Z,-0.99
2023-04-03T21:30:52.816Z,-1.03
2023-04-03T21:33:20.553Z,-1.10
2023-04-03T21:35:48.594Z,-1.18
2023-04-03T21:38:16.281Z,-1.24
2023-04-03T21:40:46.573Z,-1.33
2023-04-03T21:43:14.229Z,-1.38
2023-04-03T21:45:41.840Z,-1.43
2023-04-03T21:48:10.573Z,-1.48
2023-04-03T21:50:38.252Z,-1.52
2023-04-03T21:53:05.918Z,-1.56
2023-04-03T21:55:33.521Z,-1.59
2023-04-03T21:58:01.114Z,-1.62
2023-04-03T22:00:29.357Z,-1.65
2023-04-03T22:03:07.525Z,-1.69
2023-04-03T22:05:37.882Z,-1.72
2023-04-03T22:08:07.141Z,-1.74
2023-04-03T22:10:34.782Z,-1.77
2023-04-03T22:13:02.428Z,-1.79
2023-04-03T22:15:30.062Z,-1.79
2023-04-03T22:17:57.739Z,-1.80
2023-04-03T22:20:25.356Z,-1.81
2023-04-03T22:22:52.937Z,-1.80
2023-04-03T22:25:20.555Z,-1.80
2023-04-03T22:27:48.136Z,-1.79
2023-04-03T22:30:15.881Z,-1.79
2023-04-03T22:32:43.512Z,-1.81
2023-04-03T22:35:11.119Z,-1.83
2023-04-03T22:37:38.699Z,-1.84
2023-04-03T22:40:07.586Z,-1.86
2023-04-03T22:42:35.171Z,-1.86
2023-04-03T22:45:03.492Z,-1.87
2023-04-03T22:47:31.105Z,-1.88
2023-04-03T22:49:58.705Z,-1.89
2023-04-03T22:52:26.326Z,-1.88
2023-04-03T22:54:53.923Z,-1.89
2023-04-03T22:57:21.565Z,-1.90
2023-04-03T22:59:49.309Z,-1.93
2023-04-03T23:02:16.993Z,-1.96
2023-04-03T23:04:44.711Z,-1.98
2023-04-03T23:07:13.276Z,-2.00
2023-04-03T23:09:40.962Z,-2.01
2023-04-03T23:12:09.736Z,-2.04
2023-04-03T23:14:37.331Z,-2.06
2023-04-03T23:17:05.972Z,-2.11
2023-04-03T23:19:35.071Z,-2.15
2023-04-03T23:22:02.749Z,-2.19
2023-04-03T23:24:30.413Z,-2.22
2023-04-03T23:26:58.064Z,-2.22
2023-04-03T23:29:25.724Z,-2.22
2023-04-03T23:31:53.360Z,-2.23
2023-04-03T23:34:21.113Z,-2.24
2023-04-03T23:36:48.996Z,-2.27
2023-04-03T23:39:19.736Z,-2.30
2023-04-03T23:41:48.965Z,-2.35
2023-04-03T23:44:17.504Z,-2.40
2023-04-03T23:46:45.658Z,-2.46
2023-04-03T23:49:13.537Z,-2.48
2023-04-03T23:51:41.150Z,-2.48
2023-04-03T23:54:08.836Z,-2.50
2023-04-03T23:56:36.445Z,-2.50
2023-04-03T23:59:04.140Z,-2.50
